Latest Weather Observations for Cessnock Airport

IDN60801

Issued at 12:35 pm EDT Sunday 26 October 2014 (issued every 30 minutes, with the page automatically refreshed every 10 minutes)

About weather observations | Map of weather stations | Latest weather observations for NSW | Other Formats
Station Details ID: 061260 Name: CESSNOCK AIRPORT AWS Lat: -32.79 Lon: 151.34 Height: 61.0 m
Data from the previous 72 hours. | See also: Recent months at Cessnock Airport
Date/Time
EDT
Temp
°C
App
Temp
°C
Dew
Point
Rel
Hum
%
Delta-T
°C
Wind Press
QNH
hPa
Press
MSL
hPa
Rain
since 9 am
mm
Dir
 
Spd
km/h
Gust
km/h
Spd
kts
Gust
kts
26/12:30pm 34.5 31.2 9.7 22 14.3 NNW 17 24 9 13 1007.5 1007.3 0.0
26/12:00pm 33.9 30.5 10.5 24 13.6 NNW 19 30 10 16 1008.2 1008.0 0.0
26/11:30am 32.2 28.4 9.7 25 12.8 NW 20 33 11 18 1008.8 1008.6 0.0
26/11:00am 30.8 27.5 11.7 31 11.2 NNW 20 28 11 15 1009.2 1009.1 0.0
26/10:30am 29.6 26.8 11.2 32 10.6 N 17 28 9 15 1009.7 1009.6 0.0
26/10:00am 27.3 26.2 15.3 48 7.3 N 15 20 8 11 1010.2 1010.1 0.0
26/09:30am 25.5 24.8 15.5 54 6.1 NNW 13 22 7 12 1010.3 1010.2 0.0
26/09:00am 22.6 23.3 17.1 71 3.4 NNE 9 15 5 8 1010.6 1010.5 -
26/08:30am 20.4 22.6 19.7 96 0.4 N 7 11 4 6 1010.8 1010.7 -
26/08:00am 18.8 22.0 18.8 100 0.0 CALM 0 0 0 0 1011.0 1010.9 -
26/07:30am 17.9 19.9 17.9 100 0.0 SSW 4 7 2 4 1011.0 1010.9 -
26/07:00am 17.0 18.6 17.0 100 0.0 W 4 7 2 4 1011.0 1010.9 -
26/06:30am 15.9 17.9 15.9 100 0.0 CALM 0 0 0 0 1011.3 1011.2 -
26/06:00am 15.8 16.6 15.8 100 0.0 SW 6 9 3 5 1011.3 1011.2 -
26/05:30am 15.2 15.2 15.2 100 0.0 WSW 9 11 5 6 1011.4 1011.3 -
26/05:00am 15.3 17.0 15.3 100 0.0 CALM 0 0 0 0 1011.5 1011.4 -
26/04:30am 15.5 16.0 15.5 100 0.0 SW 7 9 4 5 1011.6 1011.5 -
26/04:00am 16.2 16.9 16.2 100 0.0 WSW 7 7 4 4 1011.9 1011.8 -
26/03:30am 15.8 16.5 15.6 99 0.1 SE 6 9 3 5 1012.4 1012.3 -
26/03:00am 17.4 18.6 17.4 100 0.0 NNW 7 9 4 5 1013.1 1013.0 0.2
26/02:30am 17.5 19.2 17.2 98 0.2 N 4 7 2 4 1013.2 1013.1 -
26/02:00am 18.8 19.8 17.8 94 0.6 NNE 9 9 5 5 1013.7 1013.6 -
26/01:30am 19.6 21.1 18.1 91 0.9 ENE 7 11 4 6 1014.4 1014.3 -
26/01:00am 20.0 21.1 18.1 89 1.2 SSW 9 15 5 8 1015.5 1015.4 -
26/12:30am 20.3 20.3 19.0 92 0.8 SSW 17 26 9 14 1016.0 1015.9 -
26/12:00am 19.0 20.8 18.8 99 0.1 SSW 7 11 4 6 1014.9 1014.8 -
 
Date/Time
EDT
Temp
°C
App
Temp
°C
Dew
Point
Rel
Hum
%
Delta-T
°C
Wind Press
QNH
hPa
Press
MSL
hPa
Rain
since 9 am
mm
Dir
 
Spd
km/h
Gust
km/h
Spd
kts
Gust
kts
25/11:30pm 19.0 20.2 19.0 100 0.0 SSE 11 17 6 9 1014.4 1014.3 -
25/11:00pm 18.6 20.4 18.4 99 0.1 S 6 9 3 5 1015.2 1015.1 -
25/10:30pm 19.3 20.7 18.6 96 0.4 SE 9 11 5 6 1015.1 1015.0 -
25/10:00pm 20.1 21.9 18.4 90 1.1 ENE 6 9 3 5 1015.2 1015.1 -
25/09:30pm 20.3 21.6 17.1 82 2.0 NE 6 9 3 5 1015.2 1015.1 -
25/09:00pm 20.6 21.6 16.8 79 2.3 E 7 15 4 8 1015.3 1015.2 -
25/08:30pm 22.1 21.9 16.6 71 3.4 E 13 17 7 9 1015.7 1015.6 -
25/08:00pm 22.5 22.5 16.3 68 3.8 E 11 15 6 8 1014.4 1014.3 -
25/07:30pm 23.3 23.6 16.1 64 4.4 E 9 13 5 7 1013.5 1013.4 -
25/07:00pm 24.2 24.5 15.9 59 5.0 E 9 13 5 7 1013.3 1013.2 -
25/06:30pm 25.7 25.9 16.8 58 5.5 ENE 11 15 6 8 1012.8 1012.7 -
25/06:00pm 27.2 28.2 17.7 56 6.0 NE 9 13 5 7 1012.3 1012.2 -
25/05:30pm 27.6 28.8 19.1 59 5.5 SE 11 15 6 8 1012.6 1012.5 -
25/05:00pm 28.2 27.8 15.1 44 8.0 SSE 11 15 6 8 1012.7 1012.6 -
25/04:30pm 31.0 29.2 15.4 38 9.7 E 19 24 10 13 1011.9 1011.8 -
25/04:00pm 30.9 28.5 13.7 35 10.4 ESE 19 28 10 15 1011.8 1011.7 -
25/03:00pm 34.3 30.1 8.1 20 14.7 SSE 20 28 11 15 1011.8 1011.7 -
25/02:30pm 34.9 33.4 9.3 21 14.7 SW 7 15 4 8 1012.1 1012.0 -
25/02:00pm 33.7 31.4 9.0 22 14.0 SSE 11 15 6 8 1012.5 1012.4 -
25/01:30pm 33.4 - 8.1 21 14.1 - - - - - 1013.0 1012.9 -
25/12:30pm 32.2 31.1 10.8 27 12.4 S 7 11 4 6 1013.8 1013.7 -
25/11:30am 30.5 28.5 8.8 26 12.1 WSW 9 13 5 7 1014.8 1014.7 0.0
25/11:00am 30.2 28.6 8.6 26 12.0 SW 7 15 4 8 1015.0 1014.9 0.0
25/10:30am 29.5 26.5 9.1 28 11.4 WSW 15 24 8 13 1015.3 1015.2 0.0
25/10:00am 28.3 28.1 11.8 36 9.5 NNW 4 9 2 5 1015.4 1015.3 0.0
25/09:30am 26.4 26.0 14.2 47 7.3 N 9 13 5 7 1015.2 1015.1 0.0
25/09:00am 24.3 25.0 16.0 60 5.1 NNE 7 11 4 6 1015.2 1015.1 0.4
25/08:30am 22.0 23.8 16.5 71 3.3 E 2 6 1 3 1015.0 1014.9 0.4
25/08:00am 19.5 21.2 18.0 91 0.9 E 6 7 3 4 1014.8 1014.7 0.4
25/07:30am 16.5 17.9 16.5 100 0.0 WSW 4 9 2 5 1014.3 1014.2 0.4
25/07:00am 13.6 14.0 13.6 100 0.0 W 4 9 2 5 1013.9 1013.8 0.4
25/06:30am 11.8 12.0 11.8 100 0.0 SSW 2 7 1 4 1013.3 1013.2 0.4
25/06:00am 12.9 13.8 12.9 100 0.0 CALM 0 6 0 3 1012.7 1012.6 0.4
25/05:30am 12.8 12.5 12.8 100 0.0 W 6 7 3 4 1012.5 1012.4 0.4
25/05:00am 13.0 13.5 12.8 99 0.1 WNW 2 7 1 4 1012.2 1012.1 0.4
25/04:30am 14.5 15.9 14.5 100 0.0 CALM 0 0 0 0 1012.0 1011.9 0.4
25/04:00am 14.5 14.7 14.2 98 0.2 WSW 6 9 3 5 1011.8 1011.7 0.4
25/03:30am 15.3 16.2 15.0 98 0.2 W 4 9 2 5 1011.9 1011.8 0.4
25/03:00am 15.8 16.3 15.6 99 0.1 SW 7 11 4 6 1011.9 1011.8 0.4
25/02:30am 15.7 16.3 15.2 97 0.3 WSW 6 7 3 4 1011.9 1011.8 0.4
25/02:00am 17.3 19.6 16.8 97 0.3 CALM 0 6 0 3 1012.0 1011.9 0.4
25/01:30am 17.0 17.0 15.3 90 1.0 SE 9 11 5 6 1012.3 1012.2 0.4
25/01:00am 18.0 19.4 14.5 80 2.0 CALM 0 0 0 0 1012.3 1012.2 0.4
25/12:30am 19.9 20.6 16.0 78 2.3 NW 7 9 4 5 1012.7 1012.6 0.4
25/12:00am 20.6 21.0 16.4 77 2.5 N 9 13 5 7 1012.7 1012.6 0.4
 
Date/Time
EDT
Temp
°C
App
Temp
°C
Dew
Point
Rel
Hum
%
Delta-T
°C
Wind Press
QNH
hPa
Press
MSL
hPa
Rain
since 9 am
mm
Dir
 
Spd
km/h
Gust
km/h
Spd
kts
Gust
kts
24/11:30pm 20.7 22.0 16.1 75 2.8 N 4 7 2 4 1012.8 1012.7 0.4
24/11:00pm 22.5 23.1 15.8 66 4.0 E 7 13 4 7 1013.2 1013.1 0.4
24/10:30pm 24.9 22.6 14.7 53 6.1 WSW 20 33 11 18 1015.0 1014.9 0.2
24/10:00pm 22.9 19.9 16.9 69 3.7 WSW 28 41 15 22 1014.6 1014.5 0.2
24/09:58pm 22.0 19.3 16.7 72 3.2 WSW 26 39 14 21 1014.5 1014.4 0.2
24/09:30pm 21.9 22.1 15.7 68 3.7 S 9 11 5 6 1012.3 1012.2 0.2
24/09:00pm 22.9 23.2 16.0 65 4.2 S 9 13 5 7 1012.7 1012.6 0.2
24/08:30pm 24.0 24.3 16.0 61 4.9 SE 9 11 5 6 1012.7 1012.6 0.2
24/08:00pm 24.9 25.2 16.1 58 5.4 ESE 9 17 5 9 1012.6 1012.5 0.2
24/07:30pm 25.7 26.4 15.7 54 6.1 ESE 6 11 3 6 1012.6 1012.5 0.2
24/07:00pm 26.7 26.8 14.5 47 7.3 ESE 7 13 4 7 1012.5 1012.4 0.2
24/06:30pm 27.3 26.9 12.9 41 8.4 E 7 9 4 5 1012.4 1012.3 0.2
24/06:00pm 28.3 26.4 11.8 36 9.6 ENE 13 17 7 9 1012.5 1012.4 0.2
24/05:30pm 29.1 27.5 11.6 33 10.1 ENE 11 17 6 9 1012.8 1012.7 0.2
24/05:00pm 29.1 27.1 11.6 33 10.1 ENE 13 19 7 10 1012.9 1012.8 0.2
24/04:30pm 29.7 28.2 13.0 35 9.9 ENE 13 17 7 9 1013.3 1013.2 0.2
24/04:00pm 28.9 27.2 12.3 36 9.7 NE 13 24 7 13 1013.7 1013.6 0.2
24/03:30pm 28.9 27.4 13.2 38 9.3 NNE 13 20 7 11 1014.4 1014.3 0.2
24/03:00pm 28.2 26.1 11.3 35 9.7 NE 13 19 7 10 1015.1 1015.0 0.2
24/02:30pm 27.8 26.0 13.3 40 8.6 NE 15 20 8 11 1015.7 1015.6 0.2
24/02:00pm 26.5 25.7 13.9 45 7.5 N 11 17 6 9 1016.4 1016.3 0.2
24/01:30pm 25.5 24.2 13.7 48 7.0 NNE 13 19 7 10 1017.1 1017.0 0.2
24/01:00pm 24.6 24.9 15.0 55 5.8 NE 7 13 4 7 1017.7 1017.6 0.2
24/12:30pm 23.3 23.7 15.4 61 4.7 N 7 11 4 6 1018.2 1018.1 0.2
24/12:00pm 22.9 23.6 15.7 64 4.3 NE 6 7 3 4 1018.8 1018.7 0.2
24/11:30am 22.3 23.0 16.1 68 3.8 ESE 7 13 4 7 1019.6 1019.5 0.2
24/11:00am 21.9 22.8 15.0 65 4.1 ENE 4 9 2 5 1020.2 1020.1 0.2
24/10:30am 21.7 21.8 16.6 73 3.1 N 11 17 6 9 1019.8 1019.7 0.2
24/10:00am 19.8 20.4 15.9 78 2.3 W 7 17 4 9 1020.2 1020.1 0.2
24/09:45am 19.2 17.3 15.7 80 2.1 NE 20 22 11 12 1019.2 1019.1 0.2
24/09:30am 19.7 20.0 14.9 74 2.8 SSW 7 13 4 7 1021.2 1021.1 0.0
24/09:00am 19.7 20.8 14.5 72 3.0 S 2 7 1 4 1020.4 1020.3 0.0
24/08:30am 19.1 20.4 16.1 83 1.8 W 4 11 2 6 1020.2 1020.1 0.0
24/08:00am 17.1 17.9 16.3 95 0.5 NNW 7 13 4 7 1019.9 1019.8 0.0
24/07:30am 16.7 18.1 16.4 98 0.2 S 4 9 2 5 1019.8 1019.7 0.0
24/07:00am 15.9 17.3 15.4 97 0.3 N 2 6 1 3 1020.0 1019.9 0.0
24/06:30am 16.0 16.7 15.5 97 0.3 N 6 9 3 5 1019.6 1019.5 0.0
24/06:00am 16.8 17.9 16.6 99 0.1 SE 6 11 3 6 1019.7 1019.6 0.0
24/05:30am 15.9 16.2 15.9 100 0.0 SSW 9 17 5 9 1020.2 1020.1 0.0
24/05:00am 12.2 11.7 12.2 100 0.0 SE 6 7 3 4 1019.7 1019.6 0.0
24/04:30am 12.2 12.5 12.2 100 0.0 SSW 2 6 1 3 1019.1 1019.0 0.0
24/04:00am 11.8 12.3 11.6 99 0.1 CALM 0 0 0 0 1018.3 1018.2 0.0
24/03:30am 12.5 12.1 12.5 100 0.0 SSW 6 9 3 5 1018.4 1018.3 0.0
24/03:00am 13.0 13.2 13.0 100 0.0 N 4 9 2 5 1018.5 1018.4 0.0
24/02:30am 12.7 11.7 12.4 98 0.2 WSW 9 11 5 6 1018.8 1018.7 0.0
24/02:00am 13.1 12.8 12.8 98 0.2 ESE 6 9 3 5 1018.4 1018.3 0.0
24/01:30am 13.8 13.5 13.3 97 0.3 WNW 7 7 4 4 1018.6 1018.5 0.0
24/01:00am 13.0 13.5 11.7 92 0.7 CALM 0 0 0 0 1018.9 1018.8 0.0
24/12:30am 13.7 13.3 12.3 91 0.8 ESE 6 7 3 4 1019.0 1018.9 0.0
24/12:00am 14.3 14.4 11.6 84 1.4 E 2 6 1 3 1019.0 1018.9 0.0
 
Date/Time
EDT
Temp
°C
App
Temp
°C
Dew
Point
Rel
Hum
%
Delta-T
°C
Wind Press
QNH
hPa
Press
MSL
hPa
Rain
since 9 am
mm
Dir
 
Spd
km/h
Gust
km/h
Spd
kts
Gust
kts
23/11:30pm 14.6 13.9 12.1 85 1.4 W 7 11 4 6 1019.3 1019.2 0.0
23/11:00pm 15.6 16.2 12.0 79 2.0 CALM 0 0 0 0 1019.1 1019.0 0.0
23/10:30pm 16.8 16.4 12.3 75 2.5 E 6 9 3 5 1019.0 1018.9 0.0
23/10:00pm 18.0 17.5 12.5 70 3.1 SSW 7 9 4 5 1018.6 1018.5 0.0
23/09:30pm 19.5 18.1 12.3 63 4.0 SSW 11 15 6 8 1018.5 1018.4 0.0
23/09:00pm 20.2 18.9 12.4 61 4.4 SSW 11 13 6 7 1018.4 1018.3 0.0
23/08:30pm 20.1 18.7 12.1 60 4.5 SSE 11 15 6 8 1018.1 1018.0 0.0
23/08:00pm 22.5 21.1 12.2 52 5.8 SSE 11 13 6 7 1017.9 1017.8 0.0
23/07:30pm 22.2 20.5 11.3 50 6.1 SSE 11 13 6 7 1017.6 1017.5 0.0
23/07:00pm 24.3 22.2 11.3 44 7.3 SE 13 17 7 9 1016.9 1016.8 0.0
23/06:30pm 25.1 21.9 11.3 42 7.8 ESE 19 28 10 15 1016.1 1016.0 0.0
23/06:00pm 26.1 23.7 11.4 39 8.4 ESE 15 22 8 12 1015.7 1015.6 0.0
23/05:30pm 27.1 24.0 10.3 35 9.4 ESE 17 24 9 13 1015.2 1015.1 0.0
23/05:00pm 27.9 24.6 9.7 32 10.2 SSE 17 20 9 11 1014.9 1014.8 0.0
23/04:30pm 29.5 25.7 9.1 28 11.4 SE 19 24 10 13 1014.4 1014.3 0.0
23/04:00pm 31.3 27.3 4.9 19 13.8 S 15 20 8 11 1014.1 1014.0 0.0
23/03:30pm 31.7 29.5 9.3 25 12.7 SE 11 17 6 9 1014.3 1014.2 0.0
23/03:00pm 31.2 27.7 7.0 22 13.1 S 15 24 8 13 1014.4 1014.3 0.0
23/02:30pm 30.3 29.0 9.8 28 11.6 SSW 7 17 4 9 1015.0 1014.9 0.0
23/02:00pm 29.8 28.7 9.9 29 11.2 S 6 11 3 6 1015.4 1015.3 0.0
23/01:30pm 29.2 28.3 10.8 32 10.5 SW 6 9 3 5 1015.9 1015.8 0.0
23/01:00pm 28.5 28.5 13.6 40 8.9 NNW 6 9 3 5 1016.4 1016.3 0.0

Other Formats:

Comma delimited format used in spreadsheet applications
http://www.bom.gov.au/fwo/IDN60801/IDN60801.95771.axf

JavaScript Object Notation format (JSON) in row-major order
http://www.bom.gov.au/fwo/IDN60801/IDN60801.95771.json